< Typhoon 198406 1984 Season Typhoon 198408 >
Typhoon 198407 (ED)
General InformationTrack Information on Google MapsDetailed Wind InformationList of All Images || Disaster Info.ResourceGoogle EarthGE AnimationAtom FeedGeoJSON
Detalied Best Track (Time Zone = UTC)
Year Month Day Hour Lat. Long. Pressure (hPa) Wind (kt) Class Image Chart
1984 7 24 18 28.8 135.0 998 0 2 Image Chart
1984 7 25 00 28.7 134.8 998 0 2 Image Chart
1984 7 25 06 28.0 135.0 996 0 2 Image Chart
1984 7 25 12 27.4 135.5 996 0 2 Image Chart
1984 7 25 18 26.7 136.4 992 0 2 Image Chart
1984 7 26 00 26.0 137.5 985 50 4 Image Chart
1984 7 26 06 25.7 138.9 985 50 4 Image Chart
1984 7 26 12 25.8 139.9 985 50 4 Image Chart
1984 7 26 18 26.4 140.4 985 50 4 Image Chart
1984 7 27 00 27.0 140.7 985 50 4 Image Chart
1984 7 27 06 27.7 140.4 985 50 4 Image Chart
1984 7 27 12 28.3 139.5 975 55 4 Image Chart
1984 7 27 18 28.6 138.8 975 55 4 Image Chart
1984 7 28 00 29.0 137.8 975 55 4 Image Chart
1984 7 28 06 29.3 136.6 975 55 4 Image Chart
1984 7 28 12 29.6 135.5 970 60 4 Image Chart
1984 7 28 18 29.9 134.2 970 60 4 Image Chart
1984 7 29 00 29.8 132.7 970 60 4 Image Chart
1984 7 29 06 29.8 131.8 955 65 5 Image Chart
1984 7 29 12 29.8 130.8 950 70 5 Image Chart
1984 7 29 18 30.0 129.7 950 70 5 Image Chart
1984 7 30 00 30.5 128.3 955 80 5 Image Chart
1984 7 30 06 31.0 126.7 960 80 5 Image Chart
1984 7 30 12 31.2 125.0 965 70 5 Image Chart
1984 7 30 18 31.3 123.7 975 55 4 Image Chart
1984 7 31 00 31.7 122.5 980 50 4 Image Chart
1984 7 31 06 32.0 121.9 980 50 4 Image Chart
1984 7 31 12 32.4 121.3 990 45 3 Image Chart
1984 7 31 18 32.8 120.7 990 40 3 Image Chart
1984 8 1 00 33.2 120.2 992 40 3 Image Chart
1984 8 1 06 33.5 120.0 994 0 2 Image Chart
1984 8 1 12 33.6 119.8 996 0 2 Image Chart
1984 8 1 18 34.0 119.5 996 0 2 Image Chart
1984 8 2 00 34.5 119.5 996 0 2 Image Chart
1984 8 2 06 35.0 119.5 998 0 2 Image Chart
1984 8 2 12 36.0 119.0 1000 0 2 Image Chart
1984 8 2 18 37.0 119.0 1000 0 2 Image Chart
1984 8 3 00 38.0 119.0 1000 0 6 Image Chart
Japan Meteorological Agency Best Track Data | Correction Date : 1992-10-21
< Typhoon 198406 1984 Season Typhoon 198408 >

Help